createdAt,value
2023-02-14T00:48:02.413Z,59.70
2023-02-14T00:50:31.122Z,59.80
2023-02-14T00:52:59.996Z,60.00
2023-02-14T00:55:28.973Z,59.70
2023-02-14T00:57:57.424Z,59.80
2023-02-14T01:47:17.658Z,59.60
2023-02-14T01:49:55.559Z,59.80
2023-02-14T01:52:28.325Z,59.70
2023-02-14T01:55:01.597Z,59.80
2023-02-14T01:57:36.220Z,59.80
2023-02-14T02:47:04.403Z,59.70
2023-02-14T02:50:00.359Z,59.90
2023-02-14T02:52:56.162Z,59.80
2023-02-14T02:55:52.860Z,59.80
2023-02-14T02:58:22.591Z,59.90
2023-02-14T03:45:19.562Z,59.80
2023-02-14T03:47:49.968Z,59.80
2023-02-14T03:50:21.328Z,59.90
2023-02-14T03:52:53.348Z,59.80
2023-02-14T03:55:31.485Z,59.90
2023-02-14T03:58:08.844Z,59.90
2023-02-14T04:45:35.656Z,59.80
2023-02-14T04:48:05.756Z,60.00
2023-02-14T04:50:34.486Z,59.90
2023-02-14T04:53:03.008Z,60.00
2023-02-14T04:55:31.427Z,59.80
2023-02-14T04:57:59.765Z,59.80
2023-02-14T05:47:57.405Z,59.90
2023-02-14T05:50:27.309Z,60.20
2023-02-14T05:52:56.479Z,60.20
2023-02-14T05:55:26.318Z,60.40
2023-02-14T05:57:54.716Z,60.30
2023-02-14T06:00:25.088Z,60.50
2023-02-14T06:02:53.444Z,60.20
2023-02-14T06:05:23.371Z,60.20
2023-02-14T06:07:52.316Z,60.10
2023-02-14T06:10:23.672Z,60.40
2023-02-14T06:12:54.117Z,60.60
2023-02-14T06:15:23.223Z,60.80
2023-02-14T06:17:56.131Z,60.80
2023-02-14T06:20:27.634Z,61.00
2023-02-14T06:22:56.730Z,60.90
2023-02-14T06:25:26.370Z,61.10
2023-02-14T06:27:58.384Z,61.10
2023-02-14T06:30:27.796Z,61.10
2023-02-14T06:32:56.321Z,61.20
2023-02-14T06:35:26.074Z,61.40
2023-02-14T06:37:54.425Z,61.30
2023-02-14T06:40:24.035Z,61.30
2023-02-14T06:42:52.713Z,61.20
2023-02-14T06:45:21.331Z,61.20
2023-02-14T06:47:49.899Z,61.20
2023-02-14T06:50:21.748Z,61.10
2023-02-14T06:52:52.011Z,61.10
2023-02-14T06:55:20.991Z,61.00
2023-02-14T06:57:49.916Z,61.10
2023-02-14T07:00:20.855Z,60.90
2023-02-14T07:02:49.477Z,60.70
2023-02-14T07:05:19.138Z,60.50
2023-02-14T07:07:47.866Z,60.80
2023-02-14T07:10:18.367Z,60.40
2023-02-14T07:12:46.998Z,60.20
2023-02-14T07:15:16.210Z,60.20
2023-02-14T07:17:45.100Z,60.40
2023-02-14T07:20:14.873Z,63.70
2023-02-14T07:22:43.283Z,62.30
2023-02-14T07:25:13.253Z,61.20
2023-02-14T07:27:43.376Z,60.70
2023-02-14T07:30:13.426Z,60.40
2023-02-14T07:32:42.569Z,60.10
2023-02-14T07:35:11.363Z,60.10
2023-02-14T07:37:40.079Z,59.90
2023-02-14T07:40:14.583Z,59.60
2023-02-14T07:42:45.629Z,59.70
2023-02-14T07:45:21.542Z,59.80
2023-02-14T07:47:51.811Z,59.60
2023-02-14T07:50:21.426Z,59.80
2023-02-14T07:52:50.294Z,59.60
2023-02-14T07:55:19.337Z,59.60
2023-02-14T07:57:50.598Z,59.50
2023-02-14T08:00:20.827Z,59.60
2023-02-14T08:02:49.495Z,59.50
2023-02-14T08:05:18.664Z,59.60
2023-02-14T08:07:47.306Z,59.60
2023-02-14T08:10:15.835Z,59.50
2023-02-14T08:13:03.568Z,59.40
2023-02-14T08:15:53.411Z,59.60
2023-02-14T08:18:24.083Z,59.40
2023-02-14T08:20:52.865Z,59.50
2023-02-14T08:23:22.158Z,59.50
2023-02-14T08:25:52.306Z,59.40
2023-02-14T08:28:24.290Z,59.30
2023-02-14T08:30:55.059Z,59.30
2023-02-14T08:33:23.903Z,59.20
2023-02-14T08:35:53.340Z,59.20
2023-02-14T08:38:21.829Z,59.10
2023-02-14T08:40:50.274Z,59.20
2023-02-14T08:43:18.665Z,59.10
2023-02-14T08:45:48.452Z,59.10
2023-02-14T08:48:18.239Z,59.10
2023-02-14T08:50:46.713Z,59.10
2023-02-14T08:53:15.556Z,59.10
2023-02-14T08:55:44.697Z,59.20
2023-02-14T08:58:13.138Z,59.10
2023-02-14T09:00:41.814Z,59.10
2023-02-14T09:03:10.668Z,59.10
2023-02-14T09:05:40.519Z,59.30
2023-02-14T09:08:09.186Z,59.10
2023-02-14T09:10:38.271Z,59.10
2023-02-14T09:13:07.332Z,59.00
2023-02-14T09:15:35.774Z,59.00
2023-02-14T09:18:04.860Z,59.00
2023-02-14T09:20:33.525Z,58.90
2023-02-14T09:23:03.619Z,58.80
2023-02-14T09:25:33.145Z,58.90
2023-02-14T09:28:02.087Z,58.90
2023-02-14T09:30:31.037Z,58.80
2023-02-14T09:33:00.307Z,58.50
2023-02-14T09:35:28.824Z,58.70
2023-02-14T09:38:17.057Z,58.80
2023-02-14T09:40:48.432Z,58.70
2023-02-14T09:43:24.973Z,58.60
2023-02-14T09:45:57.783Z,58.50
2023-02-14T09:48:31.020Z,58.30
2023-02-14T09:51:04.613Z,58.20
2023-02-14T09:53:36.646Z,61.60
2023-02-14T09:56:17.241Z,61.80
2023-02-14T09:58:54.125Z,60.40
2023-02-14T10:01:27.546Z,59.80
2023-02-14T10:04:22.493Z,59.40
2023-02-14T10:06:58.397Z,59.20
2023-02-14T10:09:50.220Z,59.10
2023-02-14T10:12:25.300Z,59.20
2023-02-14T10:14:57.271Z,59.30
2023-02-14T10:17:37.653Z,59.20
2023-02-14T10:20:19.856Z,59.10
2023-02-14T10:22:58.867Z,58.80
2023-02-14T10:25:33.595Z,58.60
2023-02-14T10:28:04.050Z,58.50
2023-02-14T10:30:40.453Z,58.50
2023-02-14T10:33:17.645Z,58.20
2023-02-14T10:35:50.253Z,58.00
2023-02-14T10:38:36.332Z,57.30
2023-02-14T10:41:28.565Z,57.20
2023-02-14T10:44:14.917Z,56.80
2023-02-14T10:46:50.528Z,57.00
2023-02-14T10:49:35.659Z,57.00
2023-02-14T10:52:16.599Z,56.80
2023-02-14T10:54:51.979Z,56.90
2023-02-14T10:57:26.772Z,57.10
2023-02-14T11:00:02.170Z,56.60
2023-02-14T11:02:37.552Z,56.60
2023-02-14T11:05:07.646Z,56.50
2023-02-14T11:07:36.450Z,56.50
2023-02-14T11:10:11.430Z,56.60
2023-02-14T11:12:42.555Z,56.60
2023-02-14T11:15:24.339Z,56.60
2023-02-14T11:18:16.807Z,56.60
2023-02-14T11:20:45.557Z,56.70
2023-02-14T11:23:22.560Z,57.20
2023-02-14T11:25:55.793Z,57.30
2023-02-14T11:28:24.735Z,57.60
2023-02-14T11:30:56.002Z,57.70
2023-02-14T11:33:36.258Z,57.70
2023-02-14T11:36:11.985Z,57.70
2023-02-14T11:38:42.446Z,57.90
2023-02-14T11:41:13.877Z,57.90
2023-02-14T11:43:49.302Z,57.80
2023-02-14T11:46:30.511Z,57.80
2023-02-14T11:49:02.907Z,57.90
2023-02-14T11:51:35.391Z,58.00
2023-02-14T11:54:06.541Z,58.00
2023-02-14T11:56:54.062Z,57.80
2023-02-14T11:59:36.199Z,56.90
2023-02-14T12:02:30.237Z,56.50
2023-02-14T12:05:02.609Z,55.80
2023-02-14T12:07:34.571Z,55.20
2023-02-14T12:10:27.015Z,54.90
2023-02-14T12:13:00.955Z,54.90
2023-02-14T12:15:40.822Z,55.00
2023-02-14T12:18:52.556Z,55.20
2023-02-14T12:21:43.369Z,55.30
2023-02-14T12:24:27.695Z,55.50
2023-02-14T12:27:07.456Z,56.40
2023-02-14T12:29:42.693Z,55.90
2023-02-14T12:32:22.045Z,55.90
2023-02-14T12:34:54.632Z,56.00
2023-02-14T12:37:41.765Z,56.00
2023-02-14T12:40:21.650Z,55.30
2023-02-14T12:43:12.107Z,55.80
2023-02-14T12:46:14.098Z,55.80
2023-02-14T12:49:03.121Z,55.70
2023-02-14T12:51:42.287Z,55.90
2023-02-14T12:54:31.248Z,55.90
2023-02-14T12:57:11.716Z,56.00
2023-02-14T12:59:52.249Z,56.10
2023-02-14T13:02:57.118Z,56.10
2023-02-14T13:05:40.891Z,56.10
2023-02-14T13:08:28.839Z,56.30
2023-02-14T13:11:06.529Z,56.70
2023-02-14T13:13:54.412Z,56.30
2023-02-14T13:16:31.658Z,56.30
2023-02-14T13:19:07.204Z,56.00
2023-02-14T13:21:39.804Z,56.50
2023-02-14T13:24:19.619Z,56.50
2023-02-14T13:26:53.923Z,56.60
2023-02-14T13:29:26.043Z,56.70
2023-02-14T13:32:00.198Z,56.90
2023-02-14T13:34:33.817Z,56.80
2023-02-14T13:37:05.784Z,57.00
2023-02-14T13:39:39.877Z,57.00
2023-02-14T13:42:08.828Z,57.00
2023-02-14T13:44:46.553Z,57.10
2023-02-14T13:47:21.234Z,57.00
2023-02-14T13:49:54.892Z,56.90
2023-02-14T13:52:43.949Z,57.00
2023-02-14T13:55:21.375Z,56.80
2023-02-14T13:58:03.053Z,56.80
2023-02-14T14:00:41.803Z,56.90
2023-02-14T14:03:15.916Z,56.90
2023-02-14T14:06:03.963Z,56.90
2023-02-14T14:08:45.343Z,57.00
2023-02-14T14:11:57.231Z,57.10
2023-02-14T14:14:36.540Z,57.10
2023-02-14T14:17:23.230Z,56.60
2023-02-14T14:19:52.330Z,57.20
2023-02-14T14:22:21.453Z,57.40
2023-02-14T14:24:59.378Z,57.40
2023-02-14T14:27:35.698Z,57.60
2023-02-14T14:30:07.312Z,57.30
2023-02-14T14:32:38.922Z,57.50
2023-02-14T14:35:20.986Z,57.40
2023-02-14T14:37:52.767Z,57.50
2023-02-14T14:40:26.859Z,58.90
2023-02-14T14:43:01.723Z,62.30
2023-02-14T14:45:32.515Z,60.70
2023-02-14T14:48:09.015Z,59.90
2023-02-14T14:50:39.764Z,59.90
2023-02-14T14:53:19.773Z,59.50
2023-02-14T14:55:52.411Z,59.40
2023-02-14T14:58:41.914Z,59.20
2023-02-14T15:01:21.421Z,59.20
2023-02-14T15:03:50.073Z,58.80
2023-02-14T15:06:22.351Z,58.70
2023-02-14T15:08:52.209Z,58.70
2023-02-14T15:11:41.207Z,58.80
2023-02-14T15:14:18.562Z,59.10
2023-02-14T15:16:50.163Z,59.00
2023-02-14T15:19:22.993Z,58.90
2023-02-14T15:21:52.098Z,58.80
2023-02-14T15:24:21.222Z,58.90
2023-02-14T15:26:53.416Z,59.00
2023-02-14T15:29:26.871Z,58.80
2023-02-14T15:31:57.606Z,58.60
2023-02-14T15:34:29.510Z,58.70
2023-02-14T15:37:03.535Z,58.70
2023-02-14T15:39:39.131Z,58.80
2023-02-14T15:42:26.174Z,60.30
2023-02-14T15:47:58.002Z,60.90
2023-02-14T15:50:29.994Z,61.30
2023-02-14T15:53:05.926Z,61.00
2023-02-14T15:55:35.802Z,60.40
2023-02-14T15:58:08.066Z,60.00
2023-02-14T16:00:37.586Z,63.20
2023-02-14T16:03:12.935Z,66.90
2023-02-14T16:05:48.580Z,68.00
2023-02-14T16:08:30.592Z,66.70
2023-02-14T16:11:08.845Z,66.10
2023-02-14T16:13:39.689Z,66.10
2023-02-14T16:16:10.371Z,66.40
2023-02-14T16:18:42.349Z,66.50
2023-02-14T16:21:18.423Z,67.60
2023-02-14T16:23:48.474Z,68.30
2023-02-14T16:26:17.005Z,69.40
2023-02-14T16:28:45.366Z,69.00
2023-02-14T16:31:17.732Z,68.80
2023-02-14T16:33:47.609Z,68.50
2023-02-14T16:36:23.497Z,69.00
2023-02-14T16:38:53.119Z,68.50
2023-02-14T16:41:26.488Z,69.30
2023-02-14T16:43:56.190Z,70.90
2023-02-14T16:46:29.632Z,72.40
2023-02-14T16:49:01.026Z,72.80
2023-02-14T16:51:33.384Z,74.10
2023-02-14T16:54:07.473Z,76.40
2023-02-14T16:56:43.315Z,73.70
2023-02-14T16:59:12.053Z,72.50
2023-02-14T17:01:41.090Z,72.20
2023-02-14T17:04:11.373Z,71.80
2023-02-14T17:06:47.355Z,71.10
2023-02-14T17:09:18.761Z,70.70
2023-02-14T17:11:51.521Z,70.10
2023-02-14T17:14:25.251Z,70.30
2023-02-14T17:16:55.848Z,69.20
2023-02-14T17:19:27.059Z,68.90
2023-02-14T17:21:58.722Z,68.40
2023-02-14T17:24:28.369Z,68.60
2023-02-14T17:26:57.300Z,69.30
2023-02-14T17:29:26.210Z,70.00
2023-02-14T17:31:54.888Z,69.40
2023-02-14T17:34:25.096Z,69.30
2023-02-14T17:36:53.454Z,68.90
2023-02-14T17:39:21.840Z,68.70
2023-02-14T17:41:50.754Z,68.30
2023-02-14T17:44:19.352Z,68.10
2023-02-14T17:46:47.918Z,67.90
2023-02-14T17:49:16.782Z,67.70
2023-02-14T17:51:47.129Z,67.50
2023-02-14T17:54:15.790Z,67.40
2023-02-14T17:56:44.392Z,67.00
2023-02-14T17:59:12.856Z,66.90
2023-02-14T18:01:43.250Z,66.70
2023-02-14T18:04:11.806Z,66.70
2023-02-14T18:06:40.350Z,66.70
2023-02-14T18:09:10.882Z,66.70
2023-02-14T18:11:42.427Z,66.70
2023-02-14T18:14:11.430Z,66.50
2023-02-14T18:16:41.012Z,66.70
2023-02-14T18:19:10.118Z,65.50
2023-02-14T18:21:40.384Z,64.50
2023-02-14T18:24:11.538Z,64.80
2023-02-14T18:26:42.159Z,64.50
2023-02-14T18:29:10.950Z,64.20
2023-02-14T18:31:42.485Z,63.80
2023-02-14T18:34:11.615Z,63.90
2023-02-14T18:36:42.715Z,63.40
2023-02-14T18:39:12.825Z,64.10
2023-02-14T18:41:41.262Z,64.90
2023-02-14T18:44:09.721Z,64.40
2023-02-14T18:46:38.322Z,63.80
2023-02-14T18:49:08.655Z,62.20
2023-02-14T18:51:39.670Z,61.60
2023-02-14T18:54:09.344Z,60.00
2023-02-14T18:56:39.940Z,58.50
2023-02-14T18:59:11.305Z,58.20
2023-02-14T19:01:43.453Z,57.80
2023-02-14T19:04:13.743Z,58.80
2023-02-14T19:06:44.197Z,59.00
2023-02-14T19:09:16.162Z,58.40
2023-02-14T19:11:46.755Z,57.80
2023-02-14T19:14:18.701Z,58.00
2023-02-14T19:16:50.821Z,59.00
2023-02-14T19:19:22.910Z,59.70
2023-02-14T19:21:52.192Z,61.80
2023-02-14T19:24:22.988Z,61.00
2023-02-14T19:26:54.685Z,60.20
2023-02-14T19:29:23.992Z,60.40
2023-02-14T19:31:55.340Z,60.50
2023-02-14T19:34:29.184Z,63.30
2023-02-14T19:37:00.630Z,62.90
2023-02-14T19:39:30.967Z,62.20
2023-02-14T19:42:01.146Z,62.30
2023-02-14T19:44:32.530Z,62.00
2023-02-14T19:47:04.117Z,61.10
2023-02-14T19:49:38.618Z,60.30
2023-02-14T19:52:14.176Z,61.10
2023-02-14T19:54:46.793Z,61.00
2023-02-14T19:57:17.799Z,60.90
2023-02-14T19:59:46.372Z,60.80
2023-02-14T20:02:20.953Z,62.30
2023-02-14T20:04:50.060Z,61.20
2023-02-14T20:07:19.648Z,60.40
2023-02-14T20:09:50.282Z,60.40
2023-02-14T20:12:22.647Z,65.20
2023-02-14T20:14:54.099Z,69.90
2023-02-14T20:17:22.490Z,73.90
2023-02-14T20:19:53.097Z,76.10
2023-02-14T20:22:23.053Z,79.10
2023-02-14T20:24:53.800Z,72.70
2023-02-14T20:27:25.845Z,68.00
2023-02-14T20:29:55.426Z,68.40
2023-02-14T20:32:24.147Z,67.90
2023-02-14T20:34:52.921Z,67.60
2023-02-14T20:37:21.725Z,64.90
2023-02-14T20:39:50.886Z,64.40
2023-02-14T20:42:19.212Z,64.60
2023-02-14T20:44:49.895Z,64.50
2023-02-14T20:47:18.548Z,64.80
2023-02-14T20:49:46.959Z,65.40
2023-02-14T20:52:18.011Z,64.60
2023-02-14T20:54:46.535Z,64.60
2023-02-14T20:57:15.020Z,65.20
2023-02-14T20:59:45.208Z,64.20
2023-02-14T21:02:15.831Z,63.70
2023-02-14T21:04:44.135Z,63.20
2023-02-14T21:07:13.006Z,63.10
2023-02-14T21:09:41.391Z,63.00
2023-02-14T21:12:11.227Z,62.90
2023-02-14T21:14:40.494Z,62.70
2023-02-14T21:17:09.498Z,62.70
2023-02-14T21:19:40.207Z,63.40
2023-02-14T21:22:08.900Z,63.40
2023-02-14T21:24:37.629Z,62.50
2023-02-14T21:27:08.010Z,62.00
2023-02-14T21:29:37.022Z,61.90
2023-02-14T21:32:06.629Z,62.40
2023-02-14T21:34:36.585Z,63.00
2023-02-14T21:37:06.605Z,61.60
2023-02-14T21:39:37.912Z,61.40
2023-02-14T21:42:07.616Z,61.10
2023-02-14T21:44:53.792Z,60.90
2023-02-14T21:47:22.680Z,60.60
2023-02-14T21:50:08.309Z,60.60
2023-02-14T21:52:38.219Z,59.90
2023-02-14T21:55:08.516Z,60.50
2023-02-14T21:57:37.078Z,60.60
2023-02-14T22:00:07.513Z,60.90
2023-02-14T22:02:40.360Z,60.30
2023-02-14T22:05:09.586Z,60.70
2023-02-14T22:07:39.755Z,60.00
2023-02-14T22:10:08.973Z,60.00
2023-02-14T22:12:37.770Z,59.80
2023-02-14T22:15:06.930Z,59.90
2023-02-14T22:17:36.071Z,60.00
2023-02-14T22:20:06.392Z,59.90
2023-02-14T22:22:35.209Z,59.70
2023-02-14T22:25:05.336Z,59.80
2023-02-14T22:27:38.489Z,59.70
2023-02-14T22:30:09.102Z,59.70
2023-02-14T22:32:37.934Z,59.50
2023-02-14T22:35:07.993Z,59.80
2023-02-14T22:37:36.386Z,59.80
2023-02-14T22:40:07.926Z,59.80
2023-02-14T22:42:36.362Z,59.70
2023-02-14T22:45:05.248Z,59.90
2023-02-14T22:47:33.712Z,59.70
2023-02-14T22:50:02.064Z,59.80
2023-02-14T22:52:31.828Z,59.90
2023-02-14T22:55:00.313Z,59.70
2023-02-14T22:57:31.791Z,59.90
2023-02-14T23:00:00.289Z,59.80
2023-02-14T23:02:28.634Z,59.80
2023-02-14T23:04:57.358Z,59.80
2023-02-14T23:07:25.760Z,59.80
2023-02-14T23:09:54.101Z,59.80
2023-02-14T23:12:40.014Z,59.60
2023-02-14T23:15:28.320Z,59.80
2023-02-14T23:18:26.177Z,59.80
2023-02-14T23:21:12.519Z,59.70
2023-02-14T23:23:40.873Z,59.90
2023-02-14T23:26:09.237Z,60.10
2023-02-14T23:28:37.589Z,59.80
2023-02-14T23:31:07.622Z,59.90
2023-02-14T23:33:36.042Z,59.70
2023-02-14T23:36:05.457Z,59.90
2023-02-14T23:38:33.832Z,59.80
2023-02-14T23:41:27.987Z,59.90
2023-02-14T23:43:56.368Z,59.90
2023-02-14T23:46:26.160Z,60.00
2023-02-14T23:48:54.494Z,60.10
2023-02-14T23:51:22.789Z,60.10
2023-02-14T23:53:53.512Z,60.70
2023-02-14T23:56:23.801Z,60.00
2023-02-14T23:58:52.324Z,59.90
